Montague, Texas
Current Conditions -  °F | °C
As of 6:35 AM on Tuesday 21 Oct 2014 (Local Time) from K0F2 Reporting Station
Haze Haze  
Wind Chill: 56°   Ceiling: Unl
Heat Index: 56°   Visibility: 2.5mi
Dew Point: 56°   Wind: 0mph
Humidity: 99%   Direction: NA
Pressure: 30.08"   Gusts: NA
Location:  33.67°N, 97.72°W
Report Text: K0F2 211135Z AUTO 00000KT 2 1/2SM BR CLR 14/13 A3008 RMK AO2 T01350133
Loading
Personal Weather Stations






























Interactive Weather Map
Tropical Storm Tracking
New forecast layout! Learn more

10-Day Weather Forecast

Advertisements
Track Severe Weather on mobile